Time;durP1;ratioP1;P1;durP2;ratioP2;P2;SDS_P1;SDS_P2;PMS_P1;PMS_P2;Temp;Humidity;BMP_temperature;BMP_pressure;BME280_temperature;BME280_humidity;BME280_pressure;Samples;Min_cycle;Max_cycle;Signal;HPM_P1;HPM_P2
2023/09/29 00:01:27;;;;;;;0.50;0.50;;;;;;;;;;5112821;28;20024;-85
2023/09/29 00:03:54;;;;;;;0.52;0.52;;;;;;;;;;5112812;28;20115;-84
2023/09/29 00:06:20;;;;;;;0.50;0.50;;;;;;;;;;5114639;28;20427;-84
2023/09/29 00:08:46;;;;;;;0.50;0.50;;;;;;;;;;5135493;28;20052;-83
2023/09/29 00:11:14;;;;;;;0.50;0.50;;;;;;;;;;5121265;28;20494;-85
2023/09/29 00:13:40;;;;;;;0.50;0.50;;;;;;;;;;5112279;28;20028;-84
2023/09/29 00:16:06;;;;;;;0.50;0.50;;;;;;;;;;5113189;28;20047;-85
2023/09/29 00:18:33;;;;;;;0.50;0.50;;;;;;;;;;5112822;28;20044;-85
2023/09/29 00:20:59;;;;;;;0.50;0.50;;;;;;;;;;5112541;28;20024;-84
2023/09/29 00:23:25;;;;;;;0.50;0.50;;;;;;;;;;5112345;28;20028;-84
2023/09/29 00:25:51;;;;;;;0.50;0.50;;;;;;;;;;5113305;28;20056;-84
2023/09/29 00:28:17;;;;;;;0.50;0.50;;;;;;;;;;5112139;28;20436;-84
2023/09/29 00:30:44;;;;;;;0.60;0.60;;;;;;;;;;5112066;28;20032;-85
2023/09/29 00:33:10;;;;;;;0.50;0.50;;;;;;;;;;5112406;28;20054;-85
2023/09/29 00:35:37;;;;;;;0.52;0.52;;;;;;;;;;5111840;28;20351;-85
2023/09/29 00:38:03;;;;;;;0.50;0.50;;;;;;;;;;5112339;28;20175;-84
2023/09/29 00:40:30;;;;;;;0.50;0.50;;;;;;;;;;5112038;28;20468;-84
2023/09/29 00:42:59;;;;;;;0.50;0.50;;;;;;;;;;5120967;28;20016;-85
2023/09/29 00:45:26;;;;;;;0.50;0.50;;;;;;;;;;5136917;27;20098;-85
2023/09/29 00:47:57;;;;;;;0.55;0.55;;;;;;;;;;5116526;28;20455;-85
2023/09/29 00:50:23;;;;;;;0.47;0.47;;;;;;;;;;5112505;28;20368;-84
2023/09/29 00:52:54;;;;;;;0.57;0.57;;;;;;;;;;5112032;28;20383;-84
2023/09/29 00:55:23;;;;;;;0.50;0.50;;;;;;;;;;5111566;28;20089;-85
2023/09/29 00:57:51;;;;;;;0.50;0.50;;;;;;;;;;5111610;28;20031;-84
2023/09/29 01:03:19;;;;;;;0.52;0.52;;;;;;;;;;5093223;28;20028;-83
2023/09/29 01:05:46;;;;;;;0.52;0.52;;;;;;;;;;5076781;28;20059;-84
2023/09/29 01:08:13;;;;;;;0.60;0.60;;;;;;;;;;5076477;28;20026;-84
2023/09/29 01:10:40;;;;;;;0.55;0.55;;;;;;;;;;5075963;28;20387;-84
2023/09/29 01:13:08;;;;;;;0.73;0.63;;;;;;;;;;5076493;28;20498;-86
2023/09/29 01:15:34;;;;;;;0.50;0.50;;;;;;;;;;5093677;28;20020;-85
2023/09/29 01:18:01;;;;;;;0.50;0.50;;;;;;;;;;5076197;28;20066;-87
2023/09/29 01:20:28;;;;;;;0.57;0.57;;;;;;;;;;5076452;28;20139;-84
2023/09/29 01:22:56;;;;;;;0.50;0.50;;;;;;;;;;5075775;28;20050;-85
2023/09/29 01:25:22;;;;;;;0.60;0.60;;;;;;;;;;5076439;28;20517;-85
2023/09/29 01:27:48;;;;;;;0.60;0.60;;;;;;;;;;5076057;28;20020;-84
2023/09/29 01:30:16;;;;;;;0.50;0.50;;;;;;;;;;5075753;28;20039;-85
2023/09/29 01:32:43;;;;;;;0.50;0.50;;;;;;;;;;5076054;28;20039;-87
2023/09/29 01:35:18;;;;;;;0.55;0.55;;;;;;;;;;5076036;28;20032;-88
2023/09/29 01:37:48;;;;;;;0.50;0.50;;;;;;;;;;5087241;28;20036;-87
2023/09/29 01:40:15;;;;;;;0.50;0.50;;;;;;;;;;5111039;28;20540;-88
2023/09/29 01:42:45;;;;;;;0.60;0.60;;;;;;;;;;5110971;28;20024;-87
2023/09/29 01:45:13;;;;;;;0.50;0.50;;;;;;;;;;5110600;28;20050;-88
2023/09/29 01:47:40;;;;;;;0.60;0.60;;;;;;;;;;5110179;28;20141;-87
2023/09/29 01:50:07;;;;;;;0.52;0.52;;;;;;;;;;5110810;28;20074;-87
2023/09/29 01:52:33;;;;;;;0.60;0.60;;;;;;;;;;5110500;28;20035;-87
2023/09/29 01:54:59;;;;;;;0.60;0.60;;;;;;;;;;5110891;28;20016;-87
2023/09/29 01:57:26;;;;;;;0.60;0.60;;;;;;;;;;5110857;28;20024;-87
2023/09/29 01:59:52;;;;;;;0.50;0.50;;;;;;;;;;5110387;28;20032;-87
2023/09/29 02:02:18;;;;;;;0.55;0.55;;;;;;;;;;5110763;28;20020;-87
2023/09/29 02:04:44;;;;;;;0.57;0.57;;;;;;;;;;5110014;28;20077;-87
2023/09/29 02:07:10;;;;;;;0.70;0.70;;;;;;;;;;5110476;28;20456;-88
2023/09/29 02:09:36;;;;;;;0.60;0.60;;;;;;;;;;5110430;28;20597;-87
2023/09/29 02:12:03;;;;;;;0.57;0.57;;;;;;;;;;5110663;28;20524;-88
2023/09/29 02:14:30;;;;;;;0.52;0.52;;;;;;;;;;5110246;28;20503;-86
2023/09/29 02:16:56;;;;;;;0.50;0.50;;;;;;;;;;5110385;28;20107;-87
2023/09/29 02:19:22;;;;;;;0.50;0.50;;;;;;;;;;5109895;28;20495;-87
2023/09/29 02:21:49;;;;;;;1.08;1.08;;;;;;;;;;5110055;28;20027;-88
2023/09/29 02:24:15;;;;;;;0.60;0.60;;;;;;;;;;5110382;28;20020;-88
2023/09/29 02:26:41;;;;;;;0.60;0.60;;;;;;;;;;5109997;28;20028;-88
2023/09/29 02:29:08;;;;;;;0.50;0.50;;;;;;;;;;5110016;28;20074;-88
2023/09/29 02:31:36;;;;;;;0.50;0.50;;;;;;;;;;5110390;28;20024;-87
2023/09/29 02:34:02;;;;;;;0.60;0.60;;;;;;;;;;5109948;28;20153;-87
2023/09/29 02:36:29;;;;;;;0.52;0.52;;;;;;;;;;5110025;28;20085;-88
2023/09/29 02:38:55;;;;;;;0.60;0.60;;;;;;;;;;5110018;28;20368;-87
2023/09/29 02:41:21;;;;;;;0.50;0.50;;;;;;;;;;5109693;28;20115;-86
2023/09/29 02:43:47;;;;;;;0.50;0.50;;;;;;;;;;5110096;28;20043;-87
2023/09/29 02:46:15;;;;;;;0.60;0.60;;;;;;;;;;5109877;28;20021;-87
2023/09/29 02:48:41;;;;;;;0.60;0.60;;;;;;;;;;5109865;28;20467;-87
2023/09/29 02:51:20;;;;;;;0.60;0.60;;;;;;;;;;5110086;28;20024;-87
2023/09/29 02:53:51;;;;;;;0.60;0.60;;;;;;;;;;5109930;28;20479;-87
2023/09/29 02:56:17;;;;;;;0.60;0.60;;;;;;;;;;5110725;28;20020;-87
2023/09/29 02:58:46;;;;;;;0.50;0.50;;;;;;;;;;5111192;28;20448;-87
2023/09/29 03:01:16;;;;;;;0.60;0.60;;;;;;;;;;5113684;28;20034;-87
2023/09/29 03:03:45;;;;;;;0.60;0.60;;;;;;;;;;5113962;28;20070;-87
2023/09/29 03:06:16;;;;;;;0.50;0.50;;;;;;;;;;5113796;28;20020;-87
2023/09/29 03:08:42;;;;;;;0.60;0.60;;;;;;;;;;5114023;28;20028;-88
2023/09/29 03:11:09;;;;;;;0.60;0.60;;;;;;;;;;5113797;28;20020;-88
2023/09/29 03:13:37;;;;;;;0.85;0.85;;;;;;;;;;5113929;28;20028;-88
2023/09/29 03:16:07;;;;;;;1.13;1.05;;;;;;;;;;5113023;28;20119;-87
2023/09/29 03:18:42;;;;;;;0.50;0.50;;;;;;;;;;5113671;28;20040;-88
2023/09/29 03:21:15;;;;;;;0.60;0.60;;;;;;;;;;5113961;28;20034;-87
2023/09/29 03:23:47;;;;;;;0.60;0.60;;;;;;;;;;5114044;28;20085;-87
2023/09/29 03:26:47;;;;;;;;;;;;;;;;;;;;;
2023/09/29 03:29:16;;;;;;;0.50;0.50;;;;;;;;;;5119536;28;20043;-88
2023/09/29 03:31:42;;;;;;;0.60;0.60;;;;;;;;;;5114152;28;20028;-87
2023/09/29 03:34:08;;;;;;;0.60;0.60;;;;;;;;;;5113941;28;20434;-86
2023/09/29 03:36:35;;;;;;;0.57;0.57;;;;;;;;;;5113441;28;20458;-86
2023/09/29 03:39:05;;;;;;;0.60;0.60;;;;;;;;;;5113233;28;20153;-87
2023/09/29 03:41:31;;;;;;;0.55;0.55;;;;;;;;;;5113615;28;20468;-87
2023/09/29 03:43:57;;;;;;;0.57;0.57;;;;;;;;;;5112919;28;20020;-88
2023/09/29 03:46:24;;;;;;;0.60;0.60;;;;;;;;;;5113006;28;20024;-86
2023/09/29 03:48:50;;;;;;;0.70;0.70;;;;;;;;;;5113446;28;20487;-89
2023/09/29 03:51:23;;;;;;;0.52;0.52;;;;;;;;;;5112871;28;20036;-86
2023/09/29 03:53:56;;;;;;;0.60;0.60;;;;;;;;;;5113417;28;20490;-87
2023/09/29 03:56:25;;;;;;;0.60;0.60;;;;;;;;;;5113005;28;20036;-87
2023/09/29 03:58:58;;;;;;;0.50;0.50;;;;;;;;;;5112437;28;20514;-88
2023/09/29 04:01:36;;;;;;;0.50;0.50;;;;;;;;;;5112590;28;20031;-89
2023/09/29 04:04:13;;;;;;;0.77;0.77;;;;;;;;;;5112313;28;20032;-87
2023/09/29 04:06:45;;;;;;;0.65;0.65;;;;;;;;;;5112642;28;20034;-88
2023/09/29 04:09:14;;;;;;;0.50;0.50;;;;;;;;;;5111804;28;20035;-87
2023/09/29 04:11:49;;;;;;;0.50;0.50;;;;;;;;;;5119424;28;20085;-86
2023/09/29 04:14:27;;;;;;;0.40;0.40;;;;;;;;;;5131211;28;20046;-87
2023/09/29 04:17:04;;;;;;;0.70;0.60;;;;;;;;;;5112795;28;20106;-87
2023/09/29 04:19:38;;;;;;;0.60;0.60;;;;;;;;;;5112091;28;20056;-89
2023/09/29 04:22:07;;;;;;;0.65;0.65;;;;;;;;;;5096697;28;20024;-86
2023/09/29 04:24:39;;;;;;;0.50;0.50;;;;;;;;;;5112366;28;20020;-87
2023/09/29 04:27:05;;;;;;;0.50;0.50;;;;;;;;;;5112507;28;20027;-87
2023/09/29 04:29:31;;;;;;;0.60;0.60;;;;;;;;;;5112321;28;20326;-88
2023/09/29 04:31:58;;;;;;;0.60;0.60;;;;;;;;;;5111930;28;20073;-87
2023/09/29 04:34:24;;;;;;;0.60;0.60;;;;;;;;;;5112374;28;20111;-86
2023/09/29 04:36:50;;;;;;;0.50;0.50;;;;;;;;;;5112053;28;20037;-88
2023/09/29 04:39:17;;;;;;;0.60;0.60;;;;;;;;;;5111915;28;20024;-86
2023/09/29 04:41:46;;;;;;;0.52;0.52;;;;;;;;;;5095239;28;20435;-87
2023/09/29 04:44:12;;;;;;;0.50;0.50;;;;;;;;;;5111953;28;20032;-86
2023/09/29 04:46:39;;;;;;;0.60;0.60;;;;;;;;;;5111422;28;20024;-88
2023/09/29 04:49:08;;;;;;;0.45;0.45;;;;;;;;;;5111792;28;20145;-87
2023/09/29 04:51:41;;;;;;;0.60;0.60;;;;;;;;;;5111682;28;20538;-85
2023/09/29 04:54:08;;;;;;;0.60;0.60;;;;;;;;;;5111572;28;20024;-88
2023/09/29 04:56:34;;;;;;;0.55;0.55;;;;;;;;;;5110631;28;20071;-88
2023/09/29 04:59:00;;;;;;;0.52;0.52;;;;;;;;;;5093773;28;20116;-89
2023/09/29 05:01:32;;;;;;;0.52;0.52;;;;;;;;;;5093525;28;20070;-89
2023/09/29 05:03:58;;;;;;;0.60;0.60;;;;;;;;;;5076902;28;20491;-88
2023/09/29 05:06:25;;;;;;;0.60;0.60;;;;;;;;;;5076781;28;20184;-86
2023/09/29 05:08:51;;;;;;;0.50;0.50;;;;;;;;;;5076373;28;20551;-86
2023/09/29 05:11:27;;;;;;;0.57;0.57;;;;;;;;;;5076403;28;20117;-87
2023/09/29 05:13:54;;;;;;;0.60;0.60;;;;;;;;;;5076443;28;20035;-87
2023/09/29 05:16:21;;;;;;;0.60;0.60;;;;;;;;;;5076571;28;20020;-87
2023/09/29 05:18:48;;;;;;;0.60;0.60;;;;;;;;;;5076593;28;20047;-89
2023/09/29 05:21:15;;;;;;;0.70;0.70;;;;;;;;;;5076101;28;20101;-88
2023/09/29 05:23:44;;;;;;;0.65;0.65;;;;;;;;;;5075665;28;20020;-88
2023/09/29 05:26:11;;;;;;;0.52;0.52;;;;;;;;;;5077193;28;20024;-88
2023/09/29 05:28:40;;;;;;;0.60;0.60;;;;;;;;;;5076286;28;20020;-85
2023/09/29 05:31:09;;;;;;;0.47;0.47;;;;;;;;;;5093364;28;20101;-87
2023/09/29 05:33:36;;;;;;;1.15;0.95;;;;;;;;;;5111051;28;20025;-87
2023/09/29 05:36:02;;;;;;;0.60;0.60;;;;;;;;;;5110814;28;20547;-88
2023/09/29 05:38:28;;;;;;;0.60;0.60;;;;;;;;;;5111010;28;20051;-85
2023/09/29 05:40:55;;;;;;;0.50;0.50;;;;;;;;;;5110854;28;20023;-87
2023/09/29 05:43:21;;;;;;;0.80;0.80;;;;;;;;;;5110778;28;20016;-88
2023/09/29 05:45:50;;;;;;;0.50;0.50;;;;;;;;;;5110949;28;20020;-85
2023/09/29 05:48:30;;;;;;;0.75;0.60;;;;;;;;;;5095015;28;20032;-86
2023/09/29 05:51:00;;;;;;;0.65;0.63;;;;;;;;;;5110336;28;20111;-88
2023/09/29 05:53:26;;;;;;;0.60;0.60;;;;;;;;;;5110417;28;20495;-88
2023/09/29 05:55:52;;;;;;;0.70;0.60;;;;;;;;;;5110116;28;20085;-87
2023/09/29 05:58:20;;;;;;;0.50;0.50;;;;;;;;;;5110526;28;20490;-86
2023/09/29 06:00:46;;;;;;;0.60;0.60;;;;;;;;;;5110404;28;20028;-87
2023/09/29 06:03:12;;;;;;;0.50;0.50;;;;;;;;;;5110496;28;20043;-88
2023/09/29 06:05:41;;;;;;;0.60;0.60;;;;;;;;;;5110498;28;20020;-88
2023/09/29 06:08:08;;;;;;;0.60;0.55;;;;;;;;;;5110893;28;20023;-87
2023/09/29 06:10:34;;;;;;;0.47;0.47;;;;;;;;;;5110258;28;20020;-88
2023/09/29 06:13:00;;;;;;;0.60;0.60;;;;;;;;;;5121717;28;20019;-86
2023/09/29 06:15:26;;;;;;;0.57;0.57;;;;;;;;;;5135018;28;20036;-85
2023/09/29 06:17:52;;;;;;;0.60;0.60;;;;;;;;;;5112500;28;20035;-86
2023/09/29 06:20:19;;;;;;;0.52;0.52;;;;;;;;;;5110375;28;20060;-87
2023/09/29 06:22:45;;;;;;;0.60;0.60;;;;;;;;;;5094616;28;20020;-88
2023/09/29 06:25:14;;;;;;;0.50;0.50;;;;;;;;;;5110251;28;20614;-88
2023/09/29 06:27:43;;;;;;;0.60;0.60;;;;;;;;;;5110709;28;20077;-87
2023/09/29 06:30:09;;;;;;;0.60;0.60;;;;;;;;;;5110974;28;20028;-85
2023/09/29 06:32:35;;;;;;;1.35;0.90;;;;;;;;;;5110851;28;20030;-88
2023/09/29 06:35:02;;;;;;;0.50;0.50;;;;;;;;;;5115452;28;20024;-87
2023/09/29 06:37:28;;;;;;;0.50;0.50;;;;;;;;;;5101293;28;20019;-86
2023/09/29 06:39:55;;;;;;;0.50;0.50;;;;;;;;;;5116675;28;20482;-86
2023/09/29 06:42:21;;;;;;;0.50;0.50;;;;;;;;;;5116765;28;20031;-85
2023/09/29 06:44:47;;;;;;;0.50;0.50;;;;;;;;;;5116409;28;20023;-85
2023/09/29 06:47:13;;;;;;;0.57;0.57;;;;;;;;;;5116614;28;20024;-84
2023/09/29 06:49:39;;;;;;;0.60;0.60;;;;;;;;;;5100825;28;20467;-84
2023/09/29 06:52:05;;;;;;;0.50;0.50;;;;;;;;;;5116466;28;20038;-84
2023/09/29 06:54:31;;;;;;;0.45;0.45;;;;;;;;;;5116623;28;20016;-84
2023/09/29 06:56:58;;;;;;;0.43;0.43;;;;;;;;;;5117485;28;20024;-85
2023/09/29 06:59:24;;;;;;;0.60;0.60;;;;;;;;;;5116450;28;20040;-85
2023/09/29 07:01:50;;;;;;;1.00;1.00;;;;;;;;;;5117297;28;20043;-84
2023/09/29 07:04:17;;;;;;;0.60;0.60;;;;;;;;;;5116628;28;20047;-85
2023/09/29 07:06:43;;;;;;;0.50;0.50;;;;;;;;;;5116166;28;20077;-84
2023/09/29 07:09:10;;;;;;;0.60;0.60;;;;;;;;;;5100828;28;20027;-83
2023/09/29 07:11:39;;;;;;;0.50;0.50;;;;;;;;;;5116350;28;20104;-84
2023/09/29 07:14:06;;;;;;;0.60;0.60;;;;;;;;;;5116042;28;20020;-85
2023/09/29 07:16:32;;;;;;;0.60;0.60;;;;;;;;;;5116645;28;20118;-84
2023/09/29 07:18:58;;;;;;;0.55;0.55;;;;;;;;;;5116259;28;20069;-84
2023/09/29 07:21:24;;;;;;;0.60;0.60;;;;;;;;;;5116812;28;20601;-85
2023/09/29 07:23:51;;;;;;;0.50;0.50;;;;;;;;;;5116484;28;20020;-84
2023/09/29 07:26:17;;;;;;;2.38;0.70;;;;;;;;;;5116078;28;20060;-83
2023/09/29 07:28:43;;;;;;;0.40;0.40;;;;;;;;;;5116071;28;20083;-83
2023/09/29 07:31:09;;;;;;;0.50;0.50;;;;;;;;;;5100547;28;20031;-84
2023/09/29 07:33:35;;;;;;;0.77;0.77;;;;;;;;;;5116069;28;20032;-83
2023/09/29 07:36:01;;;;;;;0.50;0.50;;;;;;;;;;5116174;28;20028;-83
2023/09/29 07:38:28;;;;;;;0.50;0.50;;;;;;;;;;5100411;28;20020;-83
2023/09/29 07:40:54;;;;;;;0.50;0.50;;;;;;;;;;5115745;28;20064;-82
2023/09/29 07:43:23;;;;;;;0.50;0.50;;;;;;;;;;5099452;28;20099;-86
2023/09/29 07:45:49;;;;;;;0.40;0.40;;;;;;;;;;5095325;28;20028;-85
2023/09/29 07:48:16;;;;;;;0.60;0.50;;;;;;;;;;5095552;28;20032;-85
2023/09/29 07:50:42;;;;;;;0.50;0.50;;;;;;;;;;5095934;28;20036;-84
2023/09/29 07:53:10;;;;;;;0.40;0.40;;;;;;;;;;5097554;28;20024;-85
2023/09/29 07:55:37;;;;;;;0.50;0.50;;;;;;;;;;5095652;28;20031;-84
2023/09/29 08:01:25;;;;;;;0.60;0.60;;;;;;;;;;5449033;22;20053;-87
2023/09/29 08:04:18;;;;;;;0.50;0.50;;;;;;;;;;5123387;28;20028;-85
2023/09/29 08:10:13;;;;;;;0.40;0.40;;;;;;;;;;5140374;28;20046;-86
2023/09/29 08:16:19;;;;;;;0.40;0.40;;;;;;;;;;5228548;22;20072;-87
2023/09/29 08:22:18;;;;;;;0.40;0.40;;;;;;;;;;5100796;28;20035;-86
2023/09/29 08:24:50;;;;;;;0.50;0.50;;;;;;;;;;5066276;28;20024;-90
2023/09/29 08:30:04;;;;;;;0.45;0.45;;;;;;;;;;5134773;22;20249;-83
2023/09/29 08:33:10;;;;;;;0.40;0.40;;;;;;;;;;4997639;28;20099;-87
2023/09/29 08:36:07;;;;;;;0.40;0.40;;;;;;;;;;4978006;29;20046;-83
2023/09/29 08:39:23;;;;;;;0.45;0.45;;;;;;;;;;4939372;29;20035;-82
2023/09/29 08:42:23;;;;;;;0.40;0.40;;;;;;;;;;4909257;29;20032;-83
2023/09/29 08:45:08;;;;;;;0.40;0.40;;;;;;;;;;4889789;29;20037;-83
2023/09/29 08:47:55;;;;;;;0.40;0.40;;;;;;;;;;4907373;29;20041;-81
2023/09/29 08:51:09;;;;;;;0.40;0.40;;;;;;;;;;4895837;29;20085;-82
2023/09/29 08:54:06;;;;;;;0.40;0.40;;;;;;;;;;4814035;29;20544;-82
2023/09/29 08:56:52;;;;;;;0.50;0.50;;;;;;;;;;4809625;29;20043;-81
2023/09/29 09:06:26;;;;;;;0.30;0.30;;;;;;;;;;4805454;29;20014;-86
2023/09/29 09:12:44;;;;;;;0.30;0.30;;;;;;;;;;4774309;30;20051;-85
2023/09/29 09:15:53;;;;;;;0.40;0.40;;;;;;;;;;4744468;30;20056;-85
2023/09/29 09:28:11;;;;;;;0.32;0.32;;;;;;;;;;4767915;30;20101;-84
2023/09/29 09:31:08;;;;;;;0.35;0.35;;;;;;;;;;4776834;30;20053;-85
2023/09/29 09:37:34;;;;;;;0.40;0.40;;;;;;;;;;4773297;30;20065;-87
2023/09/29 09:40:49;;;;;;;0.30;0.30;;;;;;;;;;4790315;30;20050;-86
2023/09/29 09:43:38;;;;;;;0.32;0.32;;;;;;;;;;4790448;30;20039;-86
2023/09/29 09:47:00;;;;;;;0.40;0.40;;;;;;;;;;4818237;29;20038;-86
2023/09/29 09:50:03;;;;;;;0.40;0.40;;;;;;;;;;4807841;30;20039;-85
2023/09/29 09:55:39;;;;;;;0.30;0.30;;;;;;;;;;4793810;30;20038;-85
2023/09/29 09:58:48;;;;;;;0.30;0.30;;;;;;;;;;4806448;29;20038;-84
2023/09/29 10:01:46;;;;;;;0.40;0.40;;;;;;;;;;4821616;29;20043;-84
2023/09/29 10:11:17;;;;;;;0.30;0.30;;;;;;;;;;4824566;29;20141;-87
2023/09/29 10:17:47;;;;;;;0.30;0.30;;;;;;;;;;4835456;29;20062;-84
2023/09/29 10:21:00;;;;;;;0.30;0.30;;;;;;;;;;4793458;30;20023;-85
2023/09/29 10:23:49;;;;;;;0.30;0.30;;;;;;;;;;4778980;30;20091;-82
2023/09/29 10:26:28;;;;;;;0.35;0.35;;;;;;;;;;4783696;29;20028;-83
2023/09/29 10:29:21;;;;;;;0.30;0.30;;;;;;;;;;4798487;30;20036;-85
2023/09/29 10:35:11;;;;;;;0.30;0.30;;;;;;;;;;4785303;30;20077;-79
2023/09/29 10:38:15;;;;;;;0.30;0.30;;;;;;;;;;4782996;29;20040;-83
2023/09/29 10:40:42;;;;;;;0.30;0.30;;;;;;;;;;4834348;29;20034;-83
2023/09/29 10:43:18;;;;;;;0.30;0.30;;;;;;;;;;4847206;29;20052;-84
2023/09/29 10:45:45;;;;;;;0.30;0.30;;;;;;;;;;4840430;29;20044;-80
2023/09/29 10:51:01;;;;;;;0.30;0.30;;;;;;;;;;4839236;29;20050;-81
2023/09/29 10:53:46;;;;;;;0.30;0.30;;;;;;;;;;4902859;29;20052;-87
2023/09/29 10:56:49;;;;;;;0.20;0.20;;;;;;;;;;4938982;29;20032;-86
2023/09/29 11:00:02;;;;;;;0.30;0.30;;;;;;;;;;4921832;29;20039;-86
2023/09/29 11:02:56;;;;;;;0.30;0.30;;;;;;;;;;4947460;29;20036;-87
2023/09/29 11:05:57;;;;;;;0.40;0.40;;;;;;;;;;4904984;29;20059;-85
2023/09/29 11:09:02;;;;;;;0.30;0.30;;;;;;;;;;4955800;29;20035;-87
2023/09/29 11:12:26;;;;;;;0.30;0.30;;;;;;;;;;4941173;28;20618;-86
2023/09/29 11:18:03;;;;;;;0.30;0.30;;;;;;;;;;5092951;28;20040;-87
2023/09/29 11:21:10;;;;;;;0.30;0.30;;;;;;;;;;5133877;22;20052;-88
2023/09/29 11:24:28;;;;;;;0.20;0.20;;;;;;;;;;5015739;28;20034;-88
2023/09/29 11:27:52;;;;;;;0.20;0.20;;;;;;;;;;4988496;28;20054;-87
2023/09/29 11:30:44;;;;;;;0.20;0.20;;;;;;;;;;4980197;29;20043;-86
2023/09/29 11:39:52;;;;;;;0.20;0.20;;;;;;;;;;5064062;28;20059;-79
2023/09/29 11:48:26;;;;;;;0.20;0.20;;;;;;;;;;4997512;28;20552;-84
2023/09/29 11:50:53;;;;;;;0.20;0.20;;;;;;;;;;4981011;28;20035;-86
2023/09/29 11:53:19;;;;;;;0.20;0.20;;;;;;;;;;4981038;28;20023;-88
2023/09/29 11:55:46;;;;;;;0.20;0.20;;;;;;;;;;4980946;28;20033;-87
2023/09/29 11:58:13;;;;;;;0.10;0.10;;;;;;;;;;4983905;28;20025;-87
2023/09/29 12:00:42;;;;;;;0.20;0.20;;;;;;;;;;4981057;28;20022;-87
2023/09/29 12:03:08;;;;;;;0.43;0.43;;;;;;;;;;4981261;28;20022;-85
2023/09/29 12:05:35;;;;;;;0.20;0.20;;;;;;;;;;4980514;28;20033;-87
2023/09/29 12:08:05;;;;;;;0.20;0.20;;;;;;;;;;4994336;28;20021;-87
2023/09/29 12:10:31;;;;;;;0.20;0.20;;;;;;;;;;4999339;28;20080;-87
2023/09/29 12:12:58;;;;;;;0.20;0.20;;;;;;;;;;5000255;28;20029;-87
2023/09/29 12:15:27;;;;;;;0.10;0.10;;;;;;;;;;4995464;28;20141;-89
2023/09/29 12:17:53;;;;;;;0.20;0.20;;;;;;;;;;4979042;28;20034;-89
2023/09/29 12:20:21;;;;;;;0.10;0.10;;;;;;;;;;4994733;28;20089;-89
2023/09/29 12:22:47;;;;;;;0.20;0.20;;;;;;;;;;4995692;28;20049;-90
2023/09/29 12:25:14;;;;;;;0.20;0.20;;;;;;;;;;4979667;28;20161;-90
2023/09/29 12:27:44;;;;;;;0.13;0.13;;;;;;;;;;4979225;28;20501;-88
2023/09/29 12:30:12;;;;;;;0.20;0.20;;;;;;;;;;4995296;28;20144;-88
2023/09/29 12:32:42;;;;;;;0.10;0.10;;;;;;;;;;4994871;28;20026;-87
2023/09/29 12:35:09;;;;;;;0.10;0.10;;;;;;;;;;4995331;28;20053;-89
2023/09/29 12:37:37;;;;;;;0.10;0.10;;;;;;;;;;4977130;28;20026;-89
2023/09/29 12:40:04;;;;;;;0.10;0.10;;;;;;;;;;4984435;28;20091;-86
2023/09/29 12:42:31;;;;;;;0.10;0.10;;;;;;;;;;4995248;28;20022;-89
2023/09/29 12:44:57;;;;;;;0.10;0.10;;;;;;;;;;5025177;28;20052;-86
2023/09/29 12:47:24;;;;;;;0.15;0.15;;;;;;;;;;5024185;28;20025;-87
2023/09/29 12:49:50;;;;;;;0.10;0.10;;;;;;;;;;5039250;28;20039;-87
2023/09/29 12:52:17;;;;;;;0.10;0.10;;;;;;;;;;5038532;28;20021;-88
2023/09/29 12:54:45;;;;;;;0.10;0.10;;;;;;;;;;5039183;28;20419;-87
2023/09/29 12:57:12;;;;;;;0.10;0.10;;;;;;;;;;5038490;28;20040;-88
2023/09/29 12:59:38;;;;;;;0.10;0.10;;;;;;;;;;5055964;28;20052;-88
2023/09/29 13:02:06;;;;;;;0.20;0.20;;;;;;;;;;5039369;28;20048;-89
2023/09/29 13:04:32;;;;;;;0.20;0.20;;;;;;;;;;5039311;28;20044;-87
2023/09/29 13:06:59;;;;;;;0.15;0.15;;;;;;;;;;5038580;28;20464;-90
2023/09/29 13:09:25;;;;;;;0.10;0.10;;;;;;;;;;5038472;28;20025;-87
2023/09/29 13:11:52;;;;;;;0.10;0.10;;;;;;;;;;5038357;28;20465;-88
2023/09/29 13:14:18;;;;;;;0.10;0.10;;;;;;;;;;5038238;28;20074;-88
2023/09/29 13:16:44;;;;;;;0.10;0.10;;;;;;;;;;5038574;28;20017;-87
2023/09/29 13:19:11;;;;;;;0.10;0.10;;;;;;;;;;5038855;28;20114;-88
2023/09/29 13:21:39;;;;;;;0.10;0.10;;;;;;;;;;5038216;28;20029;-88
2023/09/29 13:24:05;;;;;;;0.10;0.10;;;;;;;;;;5039163;28;20484;-88
2023/09/29 13:26:31;;;;;;;0.10;0.10;;;;;;;;;;5039711;28;20048;-87
2023/09/29 13:28:57;;;;;;;0.10;0.10;;;;;;;;;;5038212;28;20032;-88
2023/09/29 13:31:23;;;;;;;0.10;0.10;;;;;;;;;;5038372;28;20029;-89
2023/09/29 13:33:50;;;;;;;0.10;0.10;;;;;;;;;;5038002;28;20025;-88
2023/09/29 13:36:22;;;;;;;0.10;0.10;;;;;;;;;;5037966;28;20021;-87
2023/09/29 13:38:48;;;;;;;0.10;0.10;;;;;;;;;;5038030;28;20460;-89
2023/09/29 13:41:14;;;;;;;0.10;0.10;;;;;;;;;;5055670;28;20112;-88
2023/09/29 13:43:40;;;;;;;0.22;0.20;;;;;;;;;;5026577;28;20052;-90
2023/09/29 13:46:06;;;;;;;0.10;0.10;;;;;;;;;;5014815;28;20377;-88
2023/09/29 13:48:33;;;;;;;0.20;0.20;;;;;;;;;;5014768;28;20029;-89
2023/09/29 13:51:03;;;;;;;0.10;0.10;;;;;;;;;;5014524;28;20517;-89
2023/09/29 13:53:29;;;;;;;0.10;0.10;;;;;;;;;;5014529;28;20470;-86
2023/09/29 13:55:56;;;;;;;0.10;0.10;;;;;;;;;;5014435;28;20026;-88
2023/09/29 13:58:24;;;;;;;0.10;0.10;;;;;;;;;;5015651;28;20057;-87
2023/09/29 14:00:50;;;;;;;0.20;0.20;;;;;;;;;;5014540;28;20141;-88
2023/09/29 14:03:17;;;;;;;0.10;0.10;;;;;;;;;;5015717;28;20404;-88
2023/09/29 14:05:44;;;;;;;0.10;0.10;;;;;;;;;;5014489;28;20018;-89
2023/09/29 14:08:10;;;;;;;0.10;0.10;;;;;;;;;;5007755;28;20018;-89
2023/09/29 14:10:37;;;;;;;0.10;0.10;;;;;;;;;;4981787;28;20097;-88
2023/09/29 14:13:04;;;;;;;0.10;0.10;;;;;;;;;;4986486;28;20053;-88
2023/09/29 14:15:32;;;;;;;0.10;0.10;;;;;;;;;;4980884;28;20092;-89
2023/09/29 14:17:59;;;;;;;0.10;0.10;;;;;;;;;;4978648;28;20045;-87
2023/09/29 14:20:25;;;;;;;0.20;0.20;;;;;;;;;;4978298;28;20047;-90
2023/09/29 14:22:51;;;;;;;0.20;0.20;;;;;;;;;;4978433;28;20422;-89
2023/09/29 14:25:18;;;;;;;0.20;0.20;;;;;;;;;;4979479;28;20048;-89
2023/09/29 14:27:44;;;;;;;0.20;0.20;;;;;;;;;;4978846;28;20037;-88
2023/09/29 14:30:10;;;;;;;0.20;0.20;;;;;;;;;;4978507;28;20033;-88
2023/09/29 14:32:36;;;;;;;0.20;0.20;;;;;;;;;;4978465;28;20106;-87
2023/09/29 14:35:03;;;;;;;0.20;0.20;;;;;;;;;;4978785;28;20023;-86
2023/09/29 14:37:29;;;;;;;0.20;0.20;;;;;;;;;;4978666;28;20035;-87
2023/09/29 14:39:57;;;;;;;0.20;0.20;;;;;;;;;;4978831;28;20493;-85
2023/09/29 14:42:27;;;;;;;0.20;0.20;;;;;;;;;;4986575;28;20027;-82
2023/09/29 14:51:41;;;;;;;0.20;0.20;;;;;;;;;;5868852;22;20024;31
2023/09/29 15:41:54;;;;;;;0.20;0.20;;;;;;;;;;5034927;28;20110;-86
2023/09/29 15:47:34;;;;;;;;;;;;;;;;;;4990577;28;20078;-81
2023/09/29 15:50:22;;;;;;;0.30;0.30;;;;;;;;;;4977246;28;19942;-83
2023/09/29 15:53:11;;;;;;;0.20;0.20;;;;;;;;;;4971035;28;20168;-82
2023/09/29 15:55:42;;;;;;;0.20;0.20;;;;;;;;;;4966986;28;20035;-81
2023/09/29 15:58:12;;;;;;;0.30;0.30;;;;;;;;;;4967708;29;20035;-81
2023/09/29 16:00:52;;;;;;;0.20;0.20;;;;;;;;;;4969099;29;20174;-81
2023/09/29 16:04:11;;;;;;;0.20;0.20;;;;;;;;;;4940397;29;20028;-83
2023/09/29 16:07:12;;;;;;;0.30;0.30;;;;;;;;;;4909004;29;20069;-83
2023/09/29 16:09:51;;;;;;;0.30;0.30;;;;;;;;;;4913546;29;20036;-84
2023/09/29 16:12:30;;;;;;;0.25;0.25;;;;;;;;;;4916934;29;20033;-82
2023/09/29 16:15:19;;;;;;;0.30;0.30;;;;;;;;;;4878806;29;20032;-82
2023/09/29 16:18:11;;;;;;;0.20;0.20;;;;;;;;;;4878496;29;20030;-83
2023/09/29 16:20:50;;;;;;;0.20;0.20;;;;;;;;;;4857584;29;20502;-83
2023/09/29 16:23:38;;;;;;;0.30;0.30;;;;;;;;;;4857799;29;20061;-85
2023/09/29 16:26:21;;;;;;;0.30;0.30;;;;;;;;;;4858153;29;20085;-81
2023/09/29 16:28:49;;;;;;;0.20;0.20;;;;;;;;;;4844374;29;20521;-80
2023/09/29 16:31:29;;;;;;;0.30;0.30;;;;;;;;;;4857887;29;20048;-82
2023/09/29 16:33:59;;;;;;;0.30;0.30;;;;;;;;;;4861122;29;20042;-83
2023/09/29 16:36:53;;;;;;;0.30;0.30;;;;;;;;;;4863715;29;20052;-86
2023/09/29 16:39:40;;;;;;;0.30;0.30;;;;;;;;;;4894146;29;20029;-80
2023/09/29 16:42:07;;;;;;;0.30;0.30;;;;;;;;;;4903397;29;20037;-81
2023/09/29 16:44:34;;;;;;;0.30;0.30;;;;;;;;;;4913677;29;20566;-82
2023/09/29 16:47:02;;;;;;;0.30;0.30;;;;;;;;;;4898332;29;20044;-80
2023/09/29 16:49:28;;;;;;;0.30;0.30;;;;;;;;;;4913611;29;20040;-82
2023/09/29 16:51:54;;;;;;;0.52;0.52;;;;;;;;;;4912171;29;20123;-83
2023/09/29 16:54:20;;;;;;;0.30;0.30;;;;;;;;;;4911098;29;20036;-81
2023/09/29 16:56:49;;;;;;;0.30;0.30;;;;;;;;;;4911718;29;20068;-80
2023/09/29 16:59:27;;;;;;;0.30;0.30;;;;;;;;;;4920031;29;20039;-85
2023/09/29 17:02:20;;;;;;;0.30;0.30;;;;;;;;;;4915508;29;20149;-83
2023/09/29 17:11:33;;;;;;;0.30;0.30;;;;;;;;;;4900824;29;20051;-82
2023/09/29 17:14:21;;;;;;;0.30;0.30;;;;;;;;;;4878364;29;20140;-83
2023/09/29 17:17:23;;;;;;;0.30;0.30;;;;;;;;;;4874616;29;20533;-81
2023/09/29 17:19:57;;;;;;;0.40;0.40;;;;;;;;;;4868052;29;20044;-80
2023/09/29 17:22:46;;;;;;;0.55;0.55;;;;;;;;;;4874820;29;20074;-82
2023/09/29 17:26:07;;;;;;;0.30;0.30;;;;;;;;;;4827806;29;20109;-81
2023/09/29 17:29:04;;;;;;;0.32;0.32;;;;;;;;;;4819145;29;20466;-82
2023/09/29 17:32:09;;;;;;;0.30;0.30;;;;;;;;;;4837014;29;20046;-83
2023/09/29 17:35:35;;;;;;;0.30;0.30;;;;;;;;;;4797837;29;20051;-83
2023/09/29 17:38:16;;;;;;;0.30;0.30;;;;;;;;;;4791340;30;20468;-81
2023/09/29 17:44:16;;;;;;;0.32;0.32;;;;;;;;;;4815592;29;20045;-82